Time,TemperatureF,DewpointF,PressureIn,WindDirection,WindDirectionDegrees,WindSpeedMPH,WindSpeedGustMPH,Humidity,HourlyPrecipIn,Conditions,Clouds,dailyrainin,SoftwareType,DateUTC
2018-04-22 00:09:00,38.8,28.0,29.43,NNE,22,2.2,-999.0,65,-99.99,,,0.00,,2018-04-22 08:09:00,
2018-04-22 00:24:00,39.0,28.2,29.43,East,90,2.7,-999.0,65,-99.99,,,0.00,,2018-04-22 08:24:00,
2018-04-22 00:39:00,38.7,27.9,29.43,SW,225,4.2,-999.0,65,-99.99,,,0.00,,2018-04-22 08:39:00,
2018-04-22 00:54:00,38.7,27.6,29.43,NW,315,2.7,-999.0,64,-99.99,,,0.00,,2018-04-22 08:54:00,
2018-04-22 01:10:00,38.3,27.2,29.43,South,180,3.2,-999.0,64,-99.99,,,0.00,,2018-04-22 09:10:00,
2018-04-22 01:25:00,38.1,27.4,29.43,SSE,157,2.7,-999.0,65,-99.99,,,0.00,,2018-04-22 09:25:00,
2018-04-22 01:40:00,37.8,27.8,29.43,ESE,112,1.7,-999.0,67,-99.99,,,0.00,,2018-04-22 09:40:00,
2018-04-22 01:55:00,37.9,27.6,29.43,West,270,2.7,-999.0,66,-99.99,,,0.00,,2018-04-22 09:55:00,
2018-04-22 02:10:00,37.8,27.5,29.43,North,360,3.7,-999.0,66,-99.99,,,0.00,,2018-04-22 10:10:00,
2018-04-22 02:25:00,37.6,27.3,29.43,ESE,112,2.2,-999.0,66,-99.99,,,0.00,,2018-04-22 10:25:00,
2018-04-22 02:40:00,37.2,27.3,29.43,ESE,112,3.2,-999.0,67,-99.99,,,0.00,,2018-04-22 10:40:00,
2018-04-22 02:55:00,36.9,27.0,29.43,NNE,22,5.3,-999.0,67,-99.99,,,0.00,,2018-04-22 10:55:00,
2018-04-22 03:10:00,36.9,27.0,29.43,NNW,337,2.2,-999.0,67,-99.99,,,0.00,,2018-04-22 11:10:00,
2018-04-22 03:25:00,36.3,26.7,29.43,East,90,1.7,-999.0,68,-99.99,,,0.00,,2018-04-22 11:25:00,
2018-04-22 03:40:00,36.5,27.3,29.43,South,180,1.7,-999.0,69,-99.99,,,0.00,,2018-04-22 11:40:00,
2018-04-22 03:55:00,36.5,27.3,29.43,NNE,22,3.2,-999.0,69,-99.99,,,0.00,,2018-04-22 11:55:00,
2018-04-22 04:10:00,36.9,27.7,29.42,WNW,292,2.2,-999.0,69,-99.99,,,0.00,,2018-04-22 12:10:00,
2018-04-22 04:25:00,36.7,27.5,29.42,NNE,22,1.7,-999.0,69,-99.99,,,0.00,,2018-04-22 12:25:00,
2018-04-22 04:40:00,36.5,27.3,29.42,NE,45,2.2,-999.0,69,-99.99,,,0.00,,2018-04-22 12:40:00,
2018-04-22 04:55:00,36.5,27.3,29.42,South,180,2.7,-999.0,69,-99.99,,,0.00,,2018-04-22 12:55:00,
2018-04-22 05:10:00,36.5,26.6,29.41,West,270,2.2,-999.0,67,-99.99,,,0.00,,2018-04-22 13:10:00,
2018-04-22 05:25:00,36.3,26.0,29.41,North,360,2.2,-999.0,66,-99.99,,,0.00,,2018-04-22 13:25:00,
2018-04-22 05:40:00,36.5,26.2,29.41,East,90,4.7,-999.0,66,-99.99,,,0.00,,2018-04-22 13:40:00,
2018-04-22 05:55:00,36.7,26.4,29.40,NNE,22,4.2,-999.0,66,-99.99,,,0.00,,2018-04-22 13:55:00,
2018-04-22 06:10:00,36.7,26.0,29.40,NW,315,2.7,-999.0,65,-99.99,,,0.00,,2018-04-22 14:10:00,
2018-04-22 06:25:00,36.7,26.0,29.40,WNW,292,3.2,-999.0,65,-99.99,,,0.00,,2018-04-22 14:25:00,
2018-04-22 06:41:00,36.3,25.7,29.40,ESE,112,2.2,-999.0,65,-99.99,,,0.00,,2018-04-22 14:41:00,
2018-04-22 06:56:00,36.7,26.0,29.40,NNW,337,3.2,-999.0,65,-99.99,,,0.00,,2018-04-22 14:56:00,
2018-04-22 07:11:00,37.0,26.0,29.40,NW,315,3.2,-999.0,64,-99.99,,,0.00,,2018-04-22 15:11:00,
2018-04-22 07:26:00,37.4,26.0,29.39,ESE,112,1.7,-999.0,63,-99.99,,,0.00,,2018-04-22 15:26:00,
2018-04-22 07:41:00,37.8,25.6,29.39,NNW,337,1.1,-999.0,61,-99.99,,,0.00,,2018-04-22 15:41:00,
2018-04-22 07:56:00,38.1,25.4,29.39,ESE,112,2.7,-999.0,60,-99.99,,,0.00,,2018-04-22 15:56:00,
2018-04-22 08:11:00,38.7,26.0,29.39,West,270,2.7,-999.0,60,-99.99,,,0.00,,2018-04-22 16:11:00,
2018-04-22 08:26:00,39.6,26.9,29.38,ESE,112,2.7,-999.0,60,-99.99,,,0.00,,2018-04-22 16:26:00,
2018-04-22 08:41:00,40.5,26.9,29.38,SE,135,2.7,-999.0,58,-99.99,,,0.00,,2018-04-22 16:41:00,
2018-04-22 08:56:00,41.0,26.1,29.38,East,90,4.2,-999.0,55,-99.99,,,0.00,,2018-04-22 16:56:00,
2018-04-22 09:11:00,41.4,26.9,29.37,ESE,112,2.2,-999.0,56,-99.99,,,0.00,,2018-04-22 17:11:00,
2018-04-22 09:26:00,41.9,26.9,29.37,ESE,112,5.8,-999.0,55,-99.99,,,0.00,,2018-04-22 17:26:00,
2018-04-22 09:42:00,42.4,27.4,29.37,NNE,22,1.7,-999.0,55,-99.99,,,0.00,,2018-04-22 17:42:00,
2018-04-22 09:57:00,43.7,28.6,29.37,ESE,112,6.3,-999.0,55,-99.99,,,0.00,,2018-04-22 17:57:00,
2018-04-22 10:12:00,45.5,28.4,29.37,East,90,5.3,-999.0,51,-99.99,,,0.00,,2018-04-22 18:12:00,
2018-04-22 10:27:00,46.8,28.1,29.36,West,270,1.1,-999.0,48,-99.99,,,0.00,,2018-04-22 18:27:00,
2018-04-22 10:43:00,46.2,27.6,29.36,NNE,22,5.3,-999.0,48,-99.99,,,0.00,,2018-04-22 18:43:00,
2018-04-22 10:59:00,46.6,27.9,29.35,WNW,292,6.3,-999.0,48,-99.99,,,0.00,,2018-04-22 18:59:00,
2018-04-22 11:14:00,47.8,28.5,29.35,NNW,337,4.2,-999.0,47,-99.99,,,0.00,,2018-04-22 19:14:00,
2018-04-22 11:29:00,47.8,29.1,29.35,ESE,112,2.2,-999.0,48,-99.99,,,0.00,,2018-04-22 19:29:00,
2018-04-22 11:44:00,47.7,28.4,29.35,ENE,67,4.7,-999.0,47,-99.99,,,0.00,,2018-04-22 19:44:00,
2018-04-22 11:59:00,48.0,28.7,29.34,East,90,4.2,-999.0,47,-99.99,,,0.00,,2018-04-22 19:59:00,
2018-04-22 12:14:00,48.2,28.9,29.34,ENE,67,3.2,-999.0,47,-99.99,,,0.00,,2018-04-22 20:14:00,
2018-04-22 12:29:00,48.2,28.9,29.33,NE,45,4.7,-999.0,47,-99.99,,,0.00,,2018-04-22 20:29:00,
2018-04-22 12:44:00,48.2,28.4,29.33,SE,135,2.7,-999.0,46,-99.99,,,0.00,,2018-04-22 20:44:00,
2018-04-22 12:59:00,47.8,28.5,29.32,WNW,292,1.7,-999.0,47,-99.99,,,0.00,,2018-04-22 20:59:00,
2018-04-22 13:14:00,48.9,27.9,29.32,ESE,112,3.2,-999.0,44,-99.99,,,0.00,,2018-04-22 21:14:00,
2018-04-22 13:29:00,48.7,28.8,29.32,NNW,337,5.3,-999.0,46,-99.99,,,0.00,,2018-04-22 21:29:00,
2018-04-22 13:45:00,49.8,29.8,29.32,ESE,112,5.3,-999.0,46,-99.99,,,0.00,,2018-04-22 21:45:00,
2018-04-22 14:00:00,50.5,31.0,29.31,ESE,112,3.7,-999.0,47,-99.99,,,0.00,,2018-04-22 22:00:00,
2018-04-22 14:15:00,50.7,30.7,29.31,ENE,67,1.7,-999.0,46,-99.99,,,0.00,,2018-04-22 22:15:00,
2018-04-22 14:30:00,50.2,30.2,29.31,South,180,3.2,-999.0,46,-99.99,,,0.00,,2018-04-22 22:30:00,
2018-04-22 14:45:00,50.5,31.5,29.29,NNE,22,3.7,-999.0,48,-99.99,,,0.00,,2018-04-22 22:45:00,
2018-04-22 15:00:00,49.8,30.9,29.30,ESE,112,5.8,-999.0,48,-99.99,,,0.00,,2018-04-22 23:00:00,
2018-04-22 15:15:00,49.6,31.2,29.29,SE,135,2.7,-999.0,49,-99.99,,,0.00,,2018-04-22 23:15:00,
2018-04-22 15:30:00,49.6,30.7,29.29,SE,135,6.3,-999.0,48,-99.99,,,0.00,,2018-04-22 23:30:00,
2018-04-22 15:45:00,50.7,30.7,29.28,NNE,22,8.9,-999.0,46,-99.99,,,0.00,,2018-04-22 23:45:00,
2018-04-22 16:00:00,51.6,30.9,29.27,West,270,2.7,-999.0,45,-99.99,,,0.00,,2018-04-23 00:00:00,
2018-04-22 16:16:00,52.3,29.9,29.27,ESE,112,6.3,-999.0,42,-99.99,,,0.00,,2018-04-23 00:16:00,
2018-04-22 16:31:00,52.0,30.8,29.26,East,90,3.2,-999.0,44,-99.99,,,0.00,,2018-04-23 00:31:00,
2018-04-22 16:46:00,52.5,30.1,29.25,East,90,3.7,-999.0,42,-99.99,,,0.00,,2018-04-23 00:46:00,
2018-04-22 17:01:00,52.5,31.2,29.25,South,180,5.8,-999.0,44,-99.99,,,0.00,,2018-04-23 01:01:00,
2018-04-22 17:16:00,51.4,30.8,29.25,ESE,112,3.7,-999.0,45,-99.99,,,0.00,,2018-04-23 01:16:00,
2018-04-22 17:31:00,51.1,31.6,29.25,WSW,247,1.7,-999.0,47,-99.99,,,0.00,,2018-04-23 01:31:00,
2018-04-22 17:46:00,50.4,32.0,29.24,East,90,3.2,-999.0,49,-99.99,,,0.00,,2018-04-23 01:46:00,
2018-04-22 18:02:00,49.6,31.2,29.24,ESE,112,8.3,-999.0,49,-99.99,,,0.00,,2018-04-23 02:02:00,
2018-04-22 18:17:00,50.2,32.3,29.23,NE,45,2.2,-999.0,50,-99.99,,,0.00,,2018-04-23 02:17:00,
2018-04-22 18:32:00,49.3,32.4,29.23,NNW,337,4.2,-999.0,52,-99.99,,,0.00,,2018-04-23 02:32:00,
2018-04-22 18:47:00,48.4,32.0,29.23,South,180,3.7,-999.0,53,-99.99,,,0.00,,2018-04-23 02:47:00,
2018-04-22 19:02:00,47.8,32.9,29.22,West,270,4.2,-999.0,56,-99.99,,,0.00,,2018-04-23 03:02:00,
2018-04-22 19:17:00,47.5,33.0,29.22,NE,45,2.7,-999.0,57,-99.99,,,0.00,,2018-04-23 03:17:00,
2018-04-22 19:32:00,47.5,33.0,29.22,NNW,337,4.2,-999.0,57,-99.99,,,0.00,,2018-04-23 03:32:00,
2018-04-22 19:47:00,47.3,33.3,29.21,ESE,112,2.2,-999.0,58,-99.99,,,0.00,,2018-04-23 03:47:00,
2018-04-22 20:03:00,46.9,32.9,29.21,East,90,2.7,-999.0,58,-99.99,,,0.00,,2018-04-23 04:03:00,
2018-04-22 20:18:00,46.4,33.3,29.21,NNE,22,1.7,-999.0,60,-99.99,,,0.00,,2018-04-23 04:18:00,
2018-04-22 20:33:00,45.7,33.4,29.21,ESE,112,1.7,-999.0,62,-99.99,,,0.00,,2018-04-23 04:33:00,
2018-04-22 20:48:00,45.0,33.6,29.21,NE,45,1.7,-999.0,64,-99.99,,,0.00,,2018-04-23 04:48:00,
2018-04-22 21:03:00,44.4,33.4,29.21,NE,45,2.2,-999.0,65,-99.99,,,0.00,,2018-04-23 05:03:00,
2018-04-22 21:18:00,43.9,33.3,29.21,ESE,112,3.7,-999.0,66,-99.99,,,0.00,,2018-04-23 05:18:00,
2018-04-22 21:33:00,43.3,33.1,29.21,NNE,22,1.7,-999.0,67,-99.99,,,0.00,,2018-04-23 05:33:00,
2018-04-22 21:48:00,42.6,33.1,29.21,ESE,112,2.7,-999.0,69,-99.99,,,0.00,,2018-04-23 05:48:00,
2018-04-22 22:03:00,42.4,33.3,29.21,East,90,3.2,-999.0,70,-99.99,,,0.00,,2018-04-23 06:03:00,
2018-04-22 22:18:00,41.9,33.2,29.21,SSW,202,2.2,-999.0,71,-99.99,,,0.00,,2018-04-23 06:18:00,
2018-04-22 22:33:00,41.9,33.2,29.21,SSE,157,3.2,-999.0,71,-99.99,,,0.00,,2018-04-23 06:33:00,
2018-04-22 22:48:00,41.5,33.1,29.21,ESE,112,4.2,-999.0,72,-99.99,,,0.00,,2018-04-23 06:48:00,
2018-04-22 23:03:00,41.5,33.5,29.21,NNW,337,2.2,-999.0,73,-99.99,,,0.00,,2018-04-23 07:03:00,
2018-04-22 23:18:00,41.4,33.7,29.21,North,360,3.2,-999.0,74,-99.99,,,0.00,,2018-04-23 07:18:00,
2018-04-22 23:33:00,41.2,33.9,29.21,West,270,2.2,-999.0,75,-99.99,,,0.00,,2018-04-23 07:33:00,